Time;durP1;ratioP1;P1;durP2;ratioP2;P2;SDS_P1;SDS_P2;PMS_P1;PMS_P2;Temp;Humidity;BMP_temperature;BMP_pressure;BME280_temperature;BME280_humidity;BME280_pressure;Samples;Min_cycle;Max_cycle;Signal;HPM_P1;HPM_P2
2023/04/22 00:00:38;;;;;;;2.23;2.03;;;;;18.40;99773.00;;;;2070019;28;20230;-66
2023/04/22 00:01:38;;;;;;;2.60;2.40;;;;;18.40;99765.00;;;;2063703;28;20224;-66
2023/04/22 00:02:39;;;;;;;2.20;2.00;;;;;18.40;99775.00;;;;2067711;28;20268;-66
2023/04/22 00:03:40;;;;;;;3.05;2.75;;;;;18.40;99762.00;;;;2072104;28;20237;-66
2023/04/22 00:04:42;;;;;;;2.30;2.10;;;;;18.40;99764.00;;;;2068632;28;20221;-66
2023/04/22 00:05:43;;;;;;;2.63;2.42;;;;;18.40;99770.00;;;;2068445;28;20248;-66
2023/04/22 00:06:44;;;;;;;2.72;2.42;;;;;18.40;99765.00;;;;2069000;28;20229;-66
2023/04/22 00:07:44;;;;;;;2.50;2.30;;;;;18.40;99771.00;;;;2068739;28;20696;-66
2023/04/22 00:08:45;;;;;;;2.97;2.77;;;;;18.40;99761.00;;;;2070594;28;20248;-66
2023/04/22 00:09:45;;;;;;;2.47;2.27;;;;;18.40;99762.00;;;;2059951;28;20240;-66
2023/04/22 00:10:45;;;;;;;2.70;2.50;;;;;18.40;99762.00;;;;2051236;28;20662;-66
2023/04/22 00:11:45;;;;;;;2.60;2.40;;;;;18.40;99767.00;;;;2060360;28;20854;-66
2023/04/22 00:12:46;;;;;;;2.57;2.37;;;;;18.40;99765.00;;;;2069009;28;20712;-66
2023/04/22 00:13:46;;;;;;;2.23;2.03;;;;;18.40;99765.00;;;;2068313;28;20682;-66
2023/04/22 00:14:46;;;;;;;2.60;2.40;;;;;18.40;99761.00;;;;2065838;28;20585;-66
2023/04/22 00:15:47;;;;;;;2.37;2.17;;;;;18.40;99758.00;;;;2069186;28;20287;-66
2023/04/22 00:16:47;;;;;;;2.70;2.07;;;;;18.40;99761.00;;;;2066144;28;20208;-66
2023/04/22 00:17:48;;;;;;;2.53;2.33;;;;;18.40;99759.00;;;;2059230;28;20246;-66
2023/04/22 00:18:48;;;;;;;2.37;2.03;;;;;18.40;99760.00;;;;2057375;28;20289;-66
2023/04/22 00:19:48;;;;;;;2.67;2.47;;;;;18.40;99755.00;;;;2064994;28;20234;-66
2023/04/22 00:20:49;;;;;;;2.20;2.00;;;;;18.40;99763.00;;;;2069174;28;20204;-66
2023/04/22 00:21:49;;;;;;;2.57;2.37;;;;;18.40;99753.00;;;;2069143;28;20220;-66
2023/04/22 00:22:49;;;;;;;2.40;2.20;;;;;18.40;99755.00;;;;2069897;28;20217;-66
2023/04/22 00:23:50;;;;;;;2.20;2.00;;;;;18.40;99759.00;;;;2056301;28;20629;-66
2023/04/22 00:24:50;;;;;;;2.27;2.07;;;;;18.40;99756.00;;;;2060768;28;20217;-66
2023/04/22 00:25:50;;;;;;;2.43;2.23;;;;;18.40;99750.00;;;;2069670;28;20217;-66
2023/04/22 00:26:51;;;;;;;2.83;2.60;;;;;18.40;99751.00;;;;2069433;28;20252;-66
2023/04/22 00:27:51;;;;;;;2.50;2.30;;;;;18.40;99748.00;;;;2067722;28;20226;-66
2023/04/22 00:28:51;;;;;;;2.27;2.07;;;;;18.40;99738.00;;;;2069066;28;20245;-66
2023/04/22 00:29:52;;;;;;;2.30;2.10;;;;;18.40;99745.00;;;;2069448;28;20218;-66
2023/04/22 00:30:52;;;;;;;2.50;2.30;;;;;18.40;99742.00;;;;2065962;28;20218;-66
2023/04/22 00:31:52;;;;;;;2.70;2.50;;;;;18.40;99743.00;;;;2064346;28;20244;-66
2023/04/22 00:32:52;;;;;;;2.43;2.23;;;;;18.40;99747.00;;;;2064234;28;20213;-66
2023/04/22 00:33:53;;;;;;;2.20;2.00;;;;;18.40;99749.00;;;;2069718;28;20216;-66
2023/04/22 00:34:53;;;;;;;2.23;2.03;;;;;18.40;99738.00;;;;2060934;28;20219;-66
2023/04/22 00:35:54;;;;;;;2.60;2.40;;;;;18.40;99744.00;;;;2056305;28;20226;-66
2023/04/22 00:36:54;;;;;;;2.50;2.30;;;;;18.40;99739.00;;;;2067088;28;20230;-66
2023/04/22 00:37:54;;;;;;;2.50;2.30;;;;;18.40;99742.00;;;;2059287;28;20674;-66
2023/04/22 00:38:55;;;;;;;2.23;2.00;;;;;18.40;99737.00;;;;2060114;28;20257;-66
2023/04/22 00:39:56;;;;;;;2.83;2.17;;;;;18.40;99735.00;;;;2062437;28;20557;-66
2023/04/22 00:40:57;;;;;;;2.50;2.30;;;;;18.40;99735.00;;;;2065552;28;20225;-66
2023/04/22 00:41:57;;;;;;;2.23;2.03;;;;;18.40;99732.00;;;;2061420;28;20224;-66
2023/04/22 00:42:57;;;;;;;2.73;2.17;;;;;18.40;99739.00;;;;2056058;28;20219;-66
2023/04/22 00:43:58;;;;;;;1.80;1.70;;;;;18.40;99738.00;;;;2057116;28;20222;-66
2023/04/22 00:44:59;;;;;;;2.47;2.28;;;;;18.40;99740.00;;;;2058000;28;20264;-66
2023/04/22 00:45:59;;;;;;;2.43;2.23;;;;;18.40;99740.00;;;;2063966;28;20709;-66
2023/04/22 00:47:00;;;;;;;2.63;2.43;;;;;18.40;99741.00;;;;2068701;28;20317;-66
2023/04/22 00:48:00;;;;;;;2.20;1.90;;;;;18.40;99736.00;;;;2054833;28;20227;-66
2023/04/22 00:49:00;;;;;;;2.00;1.87;;;;;18.40;99735.00;;;;2048995;28;20218;-66
2023/04/22 00:50:01;;;;;;;2.20;2.00;;;;;18.40;99735.00;;;;2055287;28;20677;-66
2023/04/22 00:51:01;;;;;;;2.10;1.90;;;;;18.40;99729.00;;;;2053399;28;20225;-66
2023/04/22 00:52:02;;;;;;;2.53;2.33;;;;;18.40;99733.00;;;;2050274;28;20253;-66
2023/04/22 00:53:02;;;;;;;2.30;2.10;;;;;18.40;99739.00;;;;2064074;28;20225;-66
2023/04/22 00:54:03;;;;;;;2.40;2.20;;;;;18.40;99727.00;;;;2063875;28;20224;-66
2023/04/22 00:55:04;;;;;;;2.33;2.13;;;;;18.40;99731.00;;;;2069975;28;20558;-66
2023/04/22 00:56:04;;;;;;;2.33;2.13;;;;;18.40;99723.00;;;;2070648;28;20298;-66
2023/04/22 00:57:05;;;;;;;2.70;2.50;;;;;18.40;99734.00;;;;2063475;28;20217;-66
2023/04/22 00:58:05;;;;;;;3.97;2.17;;;;;18.40;99719.00;;;;2070158;28;20692;-66
2023/04/22 00:59:06;;;;;;;2.50;2.30;;;;;18.30;99718.00;;;;2063964;28;20690;-66
2023/04/22 01:00:08;;;;;;;3.10;2.50;;;;;18.40;99732.00;;;;2052300;28;20692;-66
2023/04/22 01:01:09;;;;;;;2.13;2.00;;;;;18.40;99727.00;;;;2061629;28;20593;-66
2023/04/22 01:02:09;;;;;;;2.10;1.90;;;;;18.40;99733.00;;;;2062721;28;20216;-66
2023/04/22 01:03:09;;;;;;;2.40;2.20;;;;;18.40;99734.00;;;;2062315;28;20223;-66
2023/04/22 01:04:12;;;;;;;2.37;2.17;;;;;18.40;99737.00;;;;2070813;28;20225;-66
2023/04/22 01:05:13;;;;;;;2.83;2.10;;;;;18.40;99732.00;;;;2065551;28;20217;-66
2023/04/22 01:06:13;;;;;;;2.27;2.07;;;;;18.40;99736.00;;;;2063289;28;20268;-66
2023/04/22 01:07:13;;;;;;;3.10;2.60;;;;;18.30;99734.00;;;;2055607;28;20724;-66
2023/04/22 01:08:15;;;;;;;2.60;2.17;;;;;18.40;99739.00;;;;2061257;28;20631;-66
2023/04/22 01:09:15;;;;;;;2.25;2.05;;;;;18.40;99740.00;;;;2072201;28;20580;-66
2023/04/22 01:10:15;;;;;;;2.20;2.00;;;;;18.40;99734.00;;;;2063380;28;20217;-66
2023/04/22 01:11:16;;;;;;;2.37;1.80;;;;;18.40;99747.00;;;;2071792;28;20240;-66
2023/04/22 01:12:16;;;;;;;2.30;2.10;;;;;18.40;99744.00;;;;2057724;28;20757;-66
2023/04/22 01:13:16;;;;;;;2.20;2.00;;;;;18.40;99741.00;;;;2059800;28;20218;-66
2023/04/22 01:14:17;;;;;;;3.77;2.80;;;;;18.40;99742.00;;;;2063662;28;20220;-66
2023/04/22 01:15:17;;;;;;;2.83;2.00;;;;;18.40;99743.00;;;;2065724;28;20226;-66
2023/04/22 01:16:18;;;;;;;2.13;1.97;;;;;18.40;99734.00;;;;2070763;28;20248;-66
2023/04/22 01:17:18;;;;;;;2.60;2.10;;;;;18.40;99736.00;;;;2047565;28;20227;-66
2023/04/22 01:18:18;;;;;;;2.40;2.20;;;;;18.40;99729.00;;;;2059055;28;20304;-66
2023/04/22 01:19:19;;;;;;;2.50;2.13;;;;;18.40;99732.00;;;;2058053;28;20692;-66
2023/04/22 01:20:20;;;;;;;1.93;1.83;;;;;18.40;99737.00;;;;2048155;28;20238;-66
2023/04/22 01:21:21;;;;;;;2.28;2.10;;;;;18.40;99724.00;;;;2059158;28;20516;-66
2023/04/22 01:22:21;;;;;;;1.77;1.67;;;;;18.40;99733.00;;;;2055186;28;20221;-65
2023/04/22 01:23:22;;;;;;;2.17;1.80;;;;;18.40;99733.00;;;;2055791;28;20214;-65
2023/04/22 01:24:22;;;;;;;2.37;2.00;;;;;18.30;99737.00;;;;2057258;28;20214;-65
2023/04/22 01:25:24;;;;;;;2.40;2.20;;;;;18.30;99717.00;;;;2063299;28;20214;-65
2023/04/22 01:26:24;;;;;;;2.22;2.03;;;;;18.40;99726.00;;;;2057921;28;20213;-65
2023/04/22 01:27:24;;;;;;;2.10;1.90;;;;;18.40;99729.00;;;;2062953;28;20238;-65
2023/04/22 01:28:25;;;;;;;2.40;2.20;;;;;18.30;99730.00;;;;2056395;28;20252;-65
2023/04/22 01:29:25;;;;;;;2.20;2.00;;;;;18.40;99744.00;;;;2069968;28;20230;-65
2023/04/22 01:30:25;;;;;;;2.23;2.03;;;;;18.40;99734.00;;;;2062390;28;20221;-65
2023/04/22 01:31:26;;;;;;;2.10;1.90;;;;;18.40;99740.00;;;;2056064;28;20219;-66
2023/04/22 01:32:29;;;;;;;2.23;2.03;;;;;18.30;99733.00;;;;2070299;28;20221;-66
2023/04/22 01:33:29;;;;;;;2.08;1.88;;;;;18.30;99738.00;;;;2050588;28;20224;-66
2023/04/22 01:34:30;;;;;;;2.53;2.10;;;;;18.40;99733.00;;;;2061109;28;20692;-66
2023/04/22 01:35:35;;;;;;;1.87;1.77;;;;;18.30;99734.00;;;;2068748;28;20213;-66
2023/04/22 01:36:35;;;;;;;2.25;2.10;;;;;18.40;99739.00;;;;2063748;28;20452;-66
2023/04/22 01:37:36;;;;;;;2.60;2.40;;;;;18.40;99734.00;;;;2062921;28;20635;-66
2023/04/22 01:38:36;;;;;;;3.57;1.93;;;;;18.40;99734.00;;;;2066479;28;20222;-66
2023/04/22 01:39:37;;;;;;;1.90;1.80;;;;;18.30;99730.00;;;;2059511;28;20293;-66
2023/04/22 01:40:37;;;;;;;2.70;2.50;;;;;18.30;99737.00;;;;2056890;28;20225;-66
2023/04/22 01:41:37;;;;;;;2.20;1.90;;;;;18.30;99738.00;;;;2060439;28;20252;-66
2023/04/22 01:42:38;;;;;;;2.27;1.97;;;;;18.30;99735.00;;;;2060429;28;20740;-66
2023/04/22 01:43:39;;;;;;;1.93;1.83;;;;;18.30;99729.00;;;;2054875;28;20219;-66
2023/04/22 01:44:39;;;;;;;2.00;1.90;;;;;18.30;99741.00;;;;2056435;28;20221;-66
2023/04/22 01:45:40;;;;;;;2.50;2.30;;;;;18.30;99734.00;;;;2058601;28;20229;-66
2023/04/22 01:46:40;;;;;;;2.20;2.00;;;;;18.30;99734.00;;;;2063511;28;20218;-66
2023/04/22 01:47:40;;;;;;;2.07;1.97;;;;;18.30;99734.00;;;;2066049;28;20225;-66
2023/04/22 01:48:41;;;;;;;2.27;2.07;;;;;18.30;99735.00;;;;2069620;28;20222;-66
2023/04/22 01:49:41;;;;;;;2.00;1.80;;;;;18.30;99735.00;;;;2054612;28;20235;-66
2023/04/22 01:50:41;;;;;;;3.23;2.03;;;;;18.40;99738.00;;;;2057958;28;20733;-66
2023/04/22 01:51:42;;;;;;;2.10;1.90;;;;;18.30;99736.00;;;;2070987;28;20715;-66
2023/04/22 01:52:42;;;;;;;2.27;2.07;;;;;18.40;99730.00;;;;2066461;28;20220;-66
2023/04/22 01:53:43;;;;;;;2.23;1.80;;;;;18.40;99735.00;;;;2069204;28;20255;-66
2023/04/22 01:54:43;;;;;;;2.30;1.90;;;;;18.30;99737.00;;;;2057809;28;20265;-66
2023/04/22 01:55:43;;;;;;;2.13;1.87;;;;;18.30;99732.00;;;;2060874;28;20223;-66
2023/04/22 01:56:53;;;;;;;2.07;1.90;;;;;18.30;99730.00;;;;2068568;28;20225;-66
2023/04/22 01:57:53;;;;;;;2.22;2.05;;;;;18.30;99737.00;;;;2059402;28;20734;-66
2023/04/22 01:58:54;;;;;;;2.30;2.10;;;;;18.30;99730.00;;;;2061371;28;20301;-66
2023/04/22 01:59:54;;;;;;;2.20;1.97;;;;;18.30;99730.00;;;;2066237;28;20225;-66
2023/04/22 02:00:54;;;;;;;2.20;2.00;;;;;18.30;99726.00;;;;2062957;28;20320;-66
2023/04/22 02:01:55;;;;;;;2.00;1.90;;;;;18.30;99726.00;;;;2063996;28;20226;-66
2023/04/22 02:02:55;;;;;;;2.73;2.00;;;;;18.30;99731.00;;;;2068572;28;20236;-66
2023/04/22 02:03:55;;;;;;;2.30;2.10;;;;;18.30;99720.00;;;;2067739;28;20305;-66
2023/04/22 02:04:56;;;;;;;2.30;2.10;;;;;18.30;99725.00;;;;2067517;28;20221;-66
2023/04/22 02:05:56;;;;;;;2.20;2.10;;;;;18.30;99725.00;;;;2068473;28;20240;-66
2023/04/22 02:06:56;;;;;;;2.03;1.83;;;;;18.30;99727.00;;;;2064183;28;20727;-66
2023/04/22 02:07:57;;;;;;;1.80;1.70;;;;;18.30;99734.00;;;;2068673;28;20697;-66
2023/04/22 02:08:57;;;;;;;2.20;2.00;;;;;18.30;99729.00;;;;2064494;28;20248;-66
2023/04/22 02:09:57;;;;;;;2.70;2.20;;;;;18.30;99725.00;;;;2065950;28;20218;-66
2023/04/22 02:10:59;;;;;;;1.70;1.60;;;;;18.30;99725.00;;;;2066270;28;20697;-66
2023/04/22 02:12:00;;;;;;;1.95;1.85;;;;;18.30;99736.00;;;;2069153;28;20209;-66
2023/04/22 02:13:00;;;;;;;1.93;1.83;;;;;18.30;99732.00;;;;2070335;28;20684;-66
2023/04/22 02:14:01;;;;;;;1.90;1.70;;;;;18.30;99738.00;;;;2068882;28;20217;-66
2023/04/22 02:15:01;;;;;;;1.80;1.70;;;;;18.30;99732.00;;;;2067021;28;20288;-66
2023/04/22 02:16:01;;;;;;;1.83;1.73;;;;;18.30;99739.00;;;;2063688;28;20697;-66
2023/04/22 02:17:02;;;;;;;2.10;1.90;;;;;18.30;99735.00;;;;2069078;28;20222;-66
2023/04/22 02:18:02;;;;;;;1.70;1.60;;;;;18.30;99730.00;;;;2068204;28;20209;-66
2023/04/22 02:19:02;;;;;;;2.10;1.70;;;;;18.30;99731.00;;;;2069264;28;20293;-66
2023/04/22 02:20:04;;;;;;;2.20;2.00;;;;;18.30;99735.00;;;;2065599;28;20260;-66
2023/04/22 02:21:04;;;;;;;2.13;1.80;;;;;18.30;99735.00;;;;2062497;28;20657;-66
2023/04/22 02:22:04;;;;;;;1.80;1.70;;;;;18.30;99732.00;;;;2063458;28;20336;-66
2023/04/22 02:23:05;;;;;;;1.80;1.70;;;;;18.30;99731.00;;;;2064687;28;20616;-66
2023/04/22 02:24:05;;;;;;;2.10;1.93;;;;;18.30;99735.00;;;;2069337;28;20687;-66
2023/04/22 02:25:06;;;;;;;2.07;1.87;;;;;18.30;99725.00;;;;2060624;28;20218;-66
2023/04/22 02:26:07;;;;;;;1.83;1.73;;;;;18.30;99730.00;;;;2058340;28;20697;-66
2023/04/22 02:27:07;;;;;;;1.97;1.87;;;;;18.30;99725.00;;;;2069603;28;20488;-66
2023/04/22 02:28:08;;;;;;;2.20;1.80;;;;;18.30;99726.00;;;;2064229;28;20329;-66
2023/04/22 02:29:08;;;;;;;2.00;1.80;;;;;18.30;99732.00;;;;2063239;28;20589;-66
2023/04/22 02:30:08;;;;;;;2.10;1.90;;;;;18.30;99719.00;;;;2065938;28;20720;-66
2023/04/22 02:31:09;;;;;;;2.20;2.07;;;;;18.30;99726.00;;;;2066351;28;20903;-66
2023/04/22 02:32:09;;;;;;;1.80;1.70;;;;;18.30;99730.00;;;;2068906;28;20231;-66
2023/04/22 02:33:09;;;;;;;2.13;1.93;;;;;18.30;99722.00;;;;2063108;28;20217;-66
2023/04/22 02:34:10;;;;;;;1.50;1.40;;;;;18.30;99722.00;;;;2068437;28;20217;-66
2023/04/22 02:35:10;;;;;;;1.70;1.60;;;;;18.30;99713.00;;;;2063837;28;20642;-66
2023/04/22 02:36:11;;;;;;;2.27;2.00;;;;;18.30;99716.00;;;;2065196;28;20613;-66
2023/04/22 02:37:11;;;;;;;2.40;1.50;;;;;18.30;99712.00;;;;2062662;28;20226;-66
2023/04/22 02:38:11;;;;;;;2.43;2.10;;;;;18.30;99719.00;;;;2060419;28;20620;-66
2023/04/22 02:39:12;;;;;;;1.80;1.70;;;;;18.30;99710.00;;;;2059467;28;20710;-66
2023/04/22 02:40:12;;;;;;;1.90;1.70;;;;;18.30;99712.00;;;;2063567;28;20721;-66
2023/04/22 02:41:12;;;;;;;2.20;2.00;;;;;18.30;99714.00;;;;2064127;28;20612;-66
2023/04/22 02:42:12;;;;;;;1.97;1.67;;;;;18.30;99708.00;;;;2065673;28;20575;-66
2023/04/22 02:43:13;;;;;;;2.20;2.00;;;;;18.30;99715.00;;;;2070271;28;20680;-66
2023/04/22 02:44:13;;;;;;;2.20;2.00;;;;;18.30;99715.00;;;;2066361;28;20724;-66
2023/04/22 02:45:14;;;;;;;2.40;2.10;;;;;18.30;99713.00;;;;2069792;28;20687;-66
2023/04/22 02:46:15;;;;;;;1.60;1.50;;;;;18.30;99718.00;;;;2063554;28;20265;-66
2023/04/22 02:47:15;;;;;;;1.83;1.73;;;;;18.30;99706.00;;;;2063011;28;20217;-66
2023/04/22 02:48:16;;;;;;;2.10;1.60;;;;;18.30;99710.00;;;;2070885;28;20249;-66
2023/04/22 02:49:16;;;;;;;2.30;2.10;;;;;18.30;99711.00;;;;2064019;28;20656;-66
2023/04/22 02:50:16;;;;;;;2.20;1.97;;;;;18.30;99707.00;;;;2069812;28;20253;-66
2023/04/22 02:51:17;;;;;;;1.90;1.77;;;;;18.30;99709.00;;;;2068652;28;20220;-66
2023/04/22 02:52:17;;;;;;;2.00;1.80;;;;;18.30;99703.00;;;;2066967;28;20225;-66
2023/04/22 02:53:17;;;;;;;1.70;1.60;;;;;18.30;99704.00;;;;2071072;28;20241;-66
2023/04/22 02:54:18;;;;;;;1.87;1.70;;;;;18.30;99708.00;;;;2065276;28;20216;-65
2023/04/22 02:55:18;;;;;;;1.97;1.77;;;;;18.30;99703.00;;;;2070565;28;20213;-65
2023/04/22 02:56:19;;;;;;;1.70;1.60;;;;;18.30;99705.00;;;;2066292;28;20222;-65
2023/04/22 02:57:19;;;;;;;2.13;1.90;;;;;18.30;99709.00;;;;2067064;28;20224;-65
2023/04/22 02:58:20;;;;;;;1.90;1.80;;;;;18.30;99702.00;;;;2064512;28;20292;-65
2023/04/22 02:59:20;;;;;;;2.03;1.83;;;;;18.30;99706.00;;;;2072863;28;20220;-65
2023/04/22 03:00:21;;;;;;;2.27;1.97;;;;;18.30;99700.00;;;;2069304;28;20225;-65
2023/04/22 03:01:21;;;;;;;2.10;1.90;;;;;18.30;99706.00;;;;2064518;28;20228;-66
2023/04/22 03:02:22;;;;;;;1.60;1.50;;;;;18.30;99699.00;;;;2064981;28;20240;-66
2023/04/22 03:03:22;;;;;;;1.70;1.60;;;;;18.30;99699.00;;;;2071155;28;20573;-66
2023/04/22 03:04:24;;;;;;;1.87;1.77;;;;;18.30;99700.00;;;;2070477;28;20248;-66
2023/04/22 03:05:24;;;;;;;1.80;1.70;;;;;18.30;99699.00;;;;2067958;28;20295;-66
2023/04/22 03:06:24;;;;;;;2.83;1.80;;;;;18.30;99699.00;;;;2072265;28;20245;-66
2023/04/22 03:07:25;;;;;;;1.80;1.70;;;;;18.30;99701.00;;;;2064506;28;20206;-66
2023/04/22 03:08:25;;;;;;;1.80;1.70;;;;;18.30;99697.00;;;;2069894;28;20221;-66
2023/04/22 03:09:26;;;;;;;1.97;1.87;;;;;18.30;99692.00;;;;2068143;28;20214;-66
2023/04/22 03:10:26;;;;;;;1.90;1.70;;;;;18.30;99699.00;;;;2067003;28;20224;-66
2023/04/22 03:11:26;;;;;;;2.30;2.10;;;;;18.30;99694.00;;;;2069066;28;20291;-66
2023/04/22 03:12:26;;;;;;;3.77;2.00;;;;;18.30;99687.00;;;;2065604;28;20224;-66
2023/04/22 03:13:27;;;;;;;1.80;1.70;;;;;18.30;99695.00;;;;2068795;28;20226;-66
2023/04/22 03:14:27;;;;;;;1.93;1.73;;;;;18.30;99692.00;;;;2059957;28;20250;-66
2023/04/22 03:15:27;;;;;;;1.77;1.67;;;;;18.30;99691.00;;;;2065688;28;20225;-66
2023/04/22 03:16:28;;;;;;;1.87;1.73;;;;;18.30;99693.00;;;;2066629;28;20214;-66
2023/04/22 03:17:28;;;;;;;2.17;1.83;;;;;18.30;99694.00;;;;2072106;28;20306;-66
2023/04/22 03:18:29;;;;;;;1.90;1.70;;;;;18.30;99690.00;;;;2066637;28;20248;-66
2023/04/22 03:19:29;;;;;;;2.13;1.80;;;;;18.30;99690.00;;;;2064883;28;20213;-66
2023/04/22 03:20:29;;;;;;;1.70;1.60;;;;;18.20;99687.00;;;;2065876;28;20245;-66
2023/04/22 03:21:31;;;;;;;1.30;1.20;;;;;18.30;99697.00;;;;2065778;28;20243;-66
2023/04/22 03:22:31;;;;;;;1.98;1.85;;;;;18.30;99686.00;;;;2071781;28;20212;-66
2023/04/22 03:23:32;;;;;;;2.10;1.90;;;;;18.30;99691.00;;;;2065417;28;20891;-66
2023/04/22 03:24:32;;;;;;;2.80;1.87;;;;;18.30;99687.00;;;;2071754;28;20681;-66
2023/04/22 03:25:33;;;;;;;2.67;1.70;;;;;18.30;99683.00;;;;2069908;28;20486;-66
2023/04/22 03:26:34;;;;;;;1.90;1.70;;;;;18.30;99681.00;;;;2066121;28;20661;-66
2023/04/22 03:27:34;;;;;;;1.90;1.80;;;;;18.30;99688.00;;;;2071770;28;20478;-66
2023/04/22 03:28:35;;;;;;;2.00;1.90;;;;;18.30;99679.00;;;;2065636;28;20293;-66
2023/04/22 03:29:35;;;;;;;1.70;1.60;;;;;18.30;99683.00;;;;2070440;28;20220;-66
2023/04/22 03:30:35;;;;;;;2.70;1.80;;;;;18.30;99683.00;;;;2068517;28;20218;-66
2023/04/22 03:31:36;;;;;;;2.60;1.67;;;;;18.30;99676.00;;;;2067157;28;20240;-66
2023/04/22 03:32:37;;;;;;;1.97;1.77;;;;;18.30;99674.00;;;;2069816;28;20671;-66
2023/04/22 03:33:37;;;;;;;2.03;1.87;;;;;18.30;99671.00;;;;2066565;28;21023;-66
2023/04/22 03:34:37;;;;;;;1.70;1.60;;;;;18.30;99680.00;;;;2060391;28;20219;-66
2023/04/22 03:35:37;;;;;;;1.70;1.60;;;;;18.30;99681.00;;;;2056298;28;20221;-66
2023/04/22 03:36:38;;;;;;;1.77;1.67;;;;;18.30;99685.00;;;;2066665;28;20222;-66
2023/04/22 03:37:38;;;;;;;1.57;1.47;;;;;18.30;99679.00;;;;2068516;28;20220;-66
2023/04/22 03:38:39;;;;;;;2.17;1.90;;;;;18.30;99682.00;;;;2072860;28;20229;-66
2023/04/22 03:39:39;;;;;;;2.00;1.80;;;;;18.30;99683.00;;;;2065661;28;20213;-66
2023/04/22 03:40:40;;;;;;;2.87;1.80;;;;;18.30;99681.00;;;;2065132;28;20228;-66
2023/04/22 03:41:40;;;;;;;2.00;1.90;;;;;18.30;99682.00;;;;2066616;28;20222;-66
2023/04/22 03:42:41;;;;;;;1.80;1.70;;;;;18.30;99685.00;;;;2066483;28;20221;-66
2023/04/22 03:43:41;;;;;;;1.90;1.70;;;;;18.30;99674.00;;;;2072690;28;20239;-66
2023/04/22 03:44:41;;;;;;;2.13;1.93;;;;;18.30;99675.00;;;;2066778;28;20218;-66
2023/04/22 03:45:43;;;;;;;2.00;1.80;;;;;18.30;99683.00;;;;2072141;28;20239;-66
2023/04/22 03:46:43;;;;;;;2.20;2.00;;;;;18.30;99678.00;;;;2058015;28;20230;-66
2023/04/22 03:47:43;;;;;;;1.80;1.60;;;;;18.30;99680.00;;;;2058296;28;20677;-66
2023/04/22 03:48:44;;;;;;;1.83;1.70;;;;;18.30;99676.00;;;;2064323;28;20569;-66
2023/04/22 03:49:44;;;;;;;1.87;1.73;;;;;18.30;99679.00;;;;2071338;28;21016;-66
2023/04/22 03:50:44;;;;;;;1.90;1.80;;;;;18.30;99670.00;;;;2070451;28;20717;-66
2023/04/22 03:51:45;;;;;;;1.70;1.53;;;;;18.30;99672.00;;;;2069103;28;20256;-66
2023/04/22 03:52:45;;;;;;;2.10;1.90;;;;;18.30;99669.00;;;;2067328;28;20216;-66
2023/04/22 03:53:45;;;;;;;2.23;1.80;;;;;18.30;99664.00;;;;2068879;28;20221;-66
2023/04/22 03:54:46;;;;;;;2.13;1.93;;;;;18.30;99672.00;;;;2067423;28;20217;-66
2023/04/22 03:55:46;;;;;;;1.93;1.73;;;;;18.30;99668.00;;;;2068938;28;20213;-66
2023/04/22 03:56:46;;;;;;;1.80;1.57;;;;;18.30;99670.00;;;;2066241;28;20209;-66
2023/04/22 03:57:47;;;;;;;1.93;1.73;;;;;18.30;99656.00;;;;2067349;28;20217;-66
2023/04/22 03:58:47;;;;;;;2.27;1.77;;;;;18.30;99675.00;;;;2069356;28;20299;-66
2023/04/22 03:59:47;;;;;;;1.97;1.83;;;;;18.30;99664.00;;;;2072441;28;20216;-66
2023/04/22 04:00:48;;;;;;;2.30;2.10;;;;;18.30;99664.00;;;;2064914;28;20589;-66
2023/04/22 04:01:49;;;;;;;1.77;1.67;;;;;18.30;99666.00;;;;2060329;28;20397;-66
2023/04/22 04:02:50;;;;;;;2.13;1.92;;;;;18.30;99657.00;;;;2067741;28;20213;-66
2023/04/22 04:03:50;;;;;;;1.63;1.53;;;;;18.30;99666.00;;;;2067314;28;20326;-66
2023/04/22 04:04:50;;;;;;;2.13;1.93;;;;;18.30;99655.00;;;;2071434;28;20622;-66
2023/04/22 04:05:51;;;;;;;1.70;1.60;;;;;18.30;99658.00;;;;2066686;28;20217;-66
2023/04/22 04:06:51;;;;;;;1.93;1.60;;;;;18.30;99658.00;;;;2071996;28;20216;-66
2023/04/22 04:07:51;;;;;;;1.77;1.60;;;;;18.30;99650.00;;;;2068996;28;20668;-66
2023/04/22 04:08:52;;;;;;;1.83;1.73;;;;;18.30;99659.00;;;;2067917;28;20701;-66
2023/04/22 04:09:52;;;;;;;2.27;1.50;;;;;18.30;99655.00;;;;2070177;28;20735;-66
2023/04/22 04:10:52;;;;;;;2.00;1.83;;;;;18.30;99654.00;;;;2067679;28;20224;-66
2023/04/22 04:11:53;;;;;;;1.73;1.63;;;;;18.30;99656.00;;;;2067474;28;20207;-66
2023/04/22 04:12:53;;;;;;;2.50;1.50;;;;;18.30;99650.00;;;;2063927;28;20224;-66
2023/04/22 04:13:54;;;;;;;1.50;1.40;;;;;18.30;99653.00;;;;2060138;28;20214;-66
2023/04/22 04:14:54;;;;;;;1.60;1.50;;;;;18.30;99653.00;;;;2063924;28;20209;-66
2023/04/22 04:15:54;;;;;;;1.60;1.50;;;;;18.30;99650.00;;;;2068269;28;20263;-66
2023/04/22 04:16:55;;;;;;;1.77;1.67;;;;;18.30;99656.00;;;;2069483;28;20295;-66
2023/04/22 04:17:55;;;;;;;1.80;1.50;;;;;18.30;99650.00;;;;2066777;28;20213;-66
2023/04/22 04:18:55;;;;;;;2.10;1.90;;;;;18.30;99655.00;;;;2064404;28;20244;-66
2023/04/22 04:19:56;;;;;;;1.60;1.50;;;;;18.30;99649.00;;;;2063807;28;20762;-66
2023/04/22 04:20:56;;;;;;;1.50;1.40;;;;;18.30;99653.00;;;;2067931;28;20701;-66
2023/04/22 04:21:56;;;;;;;2.13;1.93;;;;;18.30;99656.00;;;;2065284;28;20827;-66
2023/04/22 04:22:57;;;;;;;1.70;1.60;;;;;18.30;99637.00;;;;2065714;28;20249;-66
2023/04/22 04:23:57;;;;;;;1.97;1.70;;;;;18.20;99658.00;;;;2068535;28;20283;-66
2023/04/22 04:24:57;;;;;;;1.67;1.57;;;;;18.20;99655.00;;;;2068289;28;20635;-66
2023/04/22 04:26:01;;;;;;;1.93;1.80;;;;;18.20;99647.00;;;;2071471;28;20315;-66
2023/04/22 04:27:02;;;;;;;1.90;1.70;;;;;18.20;99645.00;;;;2063807;28;20226;-66
2023/04/22 04:28:08;;;;;;;1.90;1.80;;;;;18.20;99644.00;;;;2064408;28;20230;-66
2023/04/22 04:29:08;;;;;;;2.10;1.90;;;;;18.30;99638.00;;;;2065452;28;20213;-66
2023/04/22 04:30:09;;;;;;;1.70;1.60;;;;;18.20;99634.00;;;;2070034;28;20213;-66
2023/04/22 04:31:09;;;;;;;1.73;1.60;;;;;18.20;99637.00;;;;2068649;28;20222;-66
2023/04/22 04:32:09;;;;;;;1.63;1.53;;;;;18.30;99628.00;;;;2069974;28;20209;-66
2023/04/22 04:33:10;;;;;;;2.13;1.97;;;;;18.30;99628.00;;;;2071511;28;20209;-66
2023/04/22 04:34:11;;;;;;;1.77;1.67;;;;;18.30;99627.00;;;;2064507;28;20228;-66
2023/04/22 04:35:14;;;;;;;1.70;1.60;;;;;18.30;99635.00;;;;2070308;28;20220;-66
2023/04/22 04:36:15;;;;;;;1.90;1.80;;;;;18.30;99628.00;;;;2066272;28;20290;-66
2023/04/22 04:37:15;;;;;;;2.13;1.77;;;;;18.20;99628.00;;;;2069969;28;20210;-66
2023/04/22 04:38:16;;;;;;;1.90;1.80;;;;;18.30;99628.00;;;;2068631;28;20729;-66
2023/04/22 04:39:16;;;;;;;2.00;1.80;;;;;18.20;99632.00;;;;2067232;28;20244;-66
2023/04/22 04:40:17;;;;;;;2.00;1.80;;;;;18.30;99630.00;;;;2070904;28;20209;-66
2023/04/22 04:41:20;;;;;;;1.77;1.67;;;;;18.30;99641.00;;;;2064146;28;20213;-66
2023/04/22 04:42:23;;;;;;;3.08;1.70;;;;;18.20;99634.00;;;;2058942;28;20238;-66
2023/04/22 04:43:24;;;;;;;1.88;1.70;;;;;18.20;99638.00;;;;2057840;28;20218;-66
2023/04/22 04:44:30;;;;;;;1.40;1.30;;;;;18.20;99634.00;;;;2066031;28;20236;-66
2023/04/22 04:45:31;;;;;;;1.75;1.65;;;;;18.30;99638.00;;;;2068526;28;20305;-66
2023/04/22 04:46:33;;;;;;;1.53;1.43;;;;;18.20;99619.00;;;;2063868;28;20283;-66
2023/04/22 04:47:33;;;;;;;1.70;1.60;;;;;18.20;99632.00;;;;2055388;28;20280;-66
2023/04/22 04:48:34;;;;;;;1.50;1.40;;;;;18.20;99629.00;;;;2056288;28;20222;-66
2023/04/22 04:49:39;;;;;;;2.10;1.88;;;;;18.20;99634.00;;;;2065044;28;20217;-66
2023/04/22 04:50:42;;;;;;;1.65;1.55;;;;;18.20;99629.00;;;;2066179;28;20261;-66
2023/04/22 04:51:42;;;;;;;1.70;1.60;;;;;18.30;99636.00;;;;2072093;28;20287;-66
2023/04/22 04:52:42;;;;;;;1.60;1.50;;;;;18.30;99635.00;;;;2064445;28;20228;-66
2023/04/22 04:53:43;;;;;;;2.10;1.90;;;;;18.20;99639.00;;;;2064001;28;20218;-66
2023/04/22 04:54:43;;;;;;;1.67;1.50;;;;;18.30;99632.00;;;;2064855;28;20221;-66
2023/04/22 04:55:43;;;;;;;1.60;1.50;;;;;18.30;99640.00;;;;2065578;28;20217;-66
2023/04/22 04:56:44;;;;;;;1.60;1.50;;;;;18.30;99633.00;;;;2062946;28;20218;-66
2023/04/22 04:57:44;;;;;;;1.53;1.43;;;;;18.30;99628.00;;;;2056805;28;20919;-66
2023/04/22 04:58:45;;;;;;;1.97;1.80;;;;;18.20;99627.00;;;;2070844;28;20214;-66
2023/04/22 04:59:45;;;;;;;1.40;1.30;;;;;18.30;99637.00;;;;2067971;28;20213;-66
2023/04/22 05:00:46;;;;;;;1.70;1.60;;;;;18.30;99639.00;;;;2063522;28;20228;-66
2023/04/22 05:01:46;;;;;;;1.63;1.23;;;;;18.30;99640.00;;;;2063810;28;20232;-66
2023/04/22 05:02:46;;;;;;;1.63;1.53;;;;;18.30;99640.00;;;;2063201;28;20264;-66
2023/04/22 05:03:46;;;;;;;1.60;1.50;;;;;18.30;99635.00;;;;2061995;28;20209;-66